createdAt,value
2022-10-31T00:01:21.311Z,101742.66
2022-10-31T00:03:48.730Z,101742.06
2022-10-31T00:06:16.231Z,101746.44
2022-10-31T00:08:42.930Z,101743.94
2022-10-31T00:11:10.602Z,101748.31
2022-10-31T00:13:37.345Z,101742.16
2022-10-31T00:16:04.185Z,101740.50
2022-10-31T00:18:30.921Z,101742.28
2022-10-31T00:21:04.244Z,101737.25
2022-10-31T00:23:31.014Z,101740.41
2022-10-31T00:26:07.884Z,101753.41
2022-10-31T00:28:34.765Z,101752.56
2022-10-31T00:31:02.361Z,101744.94
2022-10-31T00:33:29.393Z,101745.72
2022-10-31T00:35:56.394Z,101754.16
2022-10-31T00:38:23.180Z,101749.97
2022-10-31T00:40:49.854Z,101744.28
2022-10-31T00:43:16.611Z,101752.84
2022-10-31T00:45:44.021Z,101746.06
2022-10-31T00:48:11.039Z,101739.38
2022-10-31T00:50:37.920Z,101743.81
2022-10-31T00:53:04.771Z,101754.22
2022-10-31T00:55:31.493Z,101750.88
2022-10-31T00:57:58.690Z,101751.13
2022-10-31T01:00:25.731Z,101758.94
2022-10-31T01:02:52.511Z,101755.69
2022-10-31T01:05:19.282Z,101758.22
2022-10-31T01:07:45.989Z,101759.22
2022-10-31T01:10:12.783Z,101767.13
2022-10-31T01:12:44.281Z,101769.06
2022-10-31T01:15:11.931Z,101764.09
2022-10-31T01:17:38.692Z,101767.47
2022-10-31T01:20:06.060Z,101764.25
2022-10-31T01:22:32.970Z,101772.72
2022-10-31T01:24:59.684Z,101764.25
2022-10-31T01:27:26.420Z,101771.91
2022-10-31T01:29:53.235Z,101756.63
2022-10-31T01:32:19.954Z,101766.81
2022-10-31T01:34:46.675Z,101772.72
2022-10-31T01:37:13.472Z,101766.69
2022-10-31T01:39:40.240Z,101763.94
2022-10-31T01:42:07.002Z,101768.69
2022-10-31T01:44:33.644Z,101775.13
2022-10-31T01:47:16.790Z,101771.31
2022-10-31T01:49:46.900Z,101768.19
2022-10-31T01:52:42.435Z,101763.19
2022-10-31T01:55:23.215Z,101765.63
2022-10-31T01:57:52.862Z,101766.19
2022-10-31T02:00:20.363Z,101769.50
2022-10-31T02:02:47.238Z,101764.28
2022-10-31T02:05:16.959Z,101763.72
2022-10-31T02:07:53.293Z,101769.88
2022-10-31T02:10:21.772Z,101775.59
2022-10-31T02:12:48.470Z,101762.06
2022-10-31T02:15:15.201Z,101776.34
2022-10-31T02:17:41.920Z,101773.13
2022-10-31T02:20:19.099Z,101774.13
2022-10-31T02:23:07.311Z,101777.75
2022-10-31T02:26:01.495Z,101770.16
2022-10-31T02:28:53.151Z,101767.91
2022-10-31T02:31:22.442Z,101768.41
2022-10-31T02:33:56.873Z,101772.41
2022-10-31T02:36:29.321Z,101760.16
2022-10-31T02:39:13.930Z,101766.97
2022-10-31T02:42:18.060Z,101781.28
2022-10-31T02:45:07.126Z,101788.88
2022-10-31T02:47:36.105Z,101788.78
2022-10-31T02:50:32.643Z,101785.97
2022-10-31T02:52:59.342Z,101794.53
2022-10-31T02:55:25.996Z,101791.00
2022-10-31T02:58:00.793Z,101787.53
2022-10-31T03:00:27.692Z,101783.03
2022-10-31T03:03:15.553Z,101794.84
2022-10-31T03:06:05.793Z,101796.41
2022-10-31T03:08:54.151Z,101801.41
2022-10-31T03:11:23.145Z,101796.00
2022-10-31T03:14:00.559Z,101796.72
2022-10-31T03:16:38.520Z,101799.22
2022-10-31T03:19:10.481Z,101801.50
2022-10-31T03:21:43.112Z,101804.88
2022-10-31T03:24:09.994Z,101797.34
2022-10-31T03:26:42.681Z,101807.28
2022-10-31T03:29:11.802Z,101804.66
2022-10-31T03:31:43.723Z,101811.47
2022-10-31T03:34:10.472Z,101802.03
2022-10-31T03:36:37.981Z,101815.63
2022-10-31T03:39:05.721Z,101821.66
2022-10-31T03:41:34.641Z,101816.34
2022-10-31T03:44:04.405Z,101810.09
2022-10-31T03:46:31.881Z,101801.50
2022-10-31T03:48:58.691Z,101808.19
2022-10-31T03:51:34.684Z,101813.31
2022-10-31T03:54:27.557Z,101812.38
2022-10-31T03:57:15.632Z,101815.81
2022-10-31T03:59:46.302Z,101811.34
2022-10-31T04:02:16.099Z,101804.41
2022-10-31T04:04:43.514Z,101816.44
2022-10-31T04:07:10.235Z,101809.44
2022-10-31T04:09:37.954Z,101815.41
2022-10-31T04:12:06.433Z,101818.00
2022-10-31T04:14:33.374Z,101813.50
2022-10-31T04:17:00.040Z,101807.78
2022-10-31T04:19:26.742Z,101817.91
2022-10-31T04:21:53.451Z,101808.28
2022-10-31T04:24:20.211Z,101803.16
2022-10-31T04:26:46.971Z,101806.53
2022-10-31T04:29:13.671Z,101807.22
2022-10-31T04:31:40.643Z,101801.28
2022-10-31T04:34:08.388Z,101802.75
2022-10-31T04:36:35.183Z,101803.56
2022-10-31T04:39:01.930Z,101792.28
2022-10-31T04:41:28.614Z,101792.91
2022-10-31T04:43:55.414Z,101797.06
2022-10-31T04:46:22.160Z,101788.50
2022-10-31T04:48:49.153Z,101786.50
2022-10-31T04:51:15.881Z,101787.47
2022-10-31T04:53:42.581Z,101795.94
2022-10-31T04:56:09.301Z,101796.41
2022-10-31T04:58:36.005Z,101792.75
2022-10-31T05:01:02.820Z,101784.09
2022-10-31T05:03:29.620Z,101787.19
2022-10-31T05:05:56.403Z,101798.28
2022-10-31T05:08:23.102Z,101790.34
2022-10-31T05:10:49.832Z,101791.03
2022-10-31T05:13:16.614Z,101783.81
2022-10-31T05:15:43.401Z,101781.94
2022-10-31T05:18:10.147Z,101790.28
2022-10-31T05:20:36.871Z,101788.38
2022-10-31T05:23:03.592Z,101780.22
2022-10-31T05:25:30.660Z,101779.28
2022-10-31T05:27:57.992Z,101780.50
2022-10-31T05:30:27.151Z,101778.50
2022-10-31T05:32:53.942Z,101779.84
2022-10-31T05:35:25.661Z,101775.13
2022-10-31T05:37:52.427Z,101783.44
2022-10-31T05:40:19.697Z,101774.78
2022-10-31T05:42:46.471Z,101782.66
2022-10-31T05:45:15.171Z,101776.97
2022-10-31T05:47:42.032Z,101786.25
2022-10-31T05:50:09.342Z,101784.84
2022-10-31T05:52:36.281Z,101790.56
2022-10-31T05:55:03.052Z,101792.88
2022-10-31T05:57:30.503Z,101802.97
2022-10-31T05:59:57.261Z,101809.56
2022-10-31T06:02:24.033Z,101808.38
2022-10-31T06:04:50.901Z,101806.44
2022-10-31T06:07:17.786Z,101805.03
2022-10-31T06:09:44.513Z,101808.16
2022-10-31T06:12:11.234Z,101801.72
2022-10-31T06:14:37.924Z,101812.44
2022-10-31T06:17:04.674Z,101815.44
2022-10-31T06:19:31.370Z,101812.59
2022-10-31T06:21:58.111Z,101811.97
2022-10-31T06:24:24.861Z,101807.47
2022-10-31T06:26:51.549Z,101814.50
2022-10-31T06:29:18.263Z,101814.03
2022-10-31T06:31:44.995Z,101805.19
2022-10-31T06:34:11.730Z,101813.88
2022-10-31T06:36:38.443Z,101817.69
2022-10-31T06:39:05.180Z,101812.69
2022-10-31T06:41:31.884Z,101808.63
2022-10-31T06:43:58.606Z,101802.63
2022-10-31T06:46:27.835Z,101808.97
2022-10-31T06:48:54.550Z,101823.84
2022-10-31T06:51:21.302Z,101817.88
2022-10-31T06:53:48.021Z,101826.53
2022-10-31T06:56:14.773Z,101807.19
2022-10-31T06:58:41.551Z,101820.50
2022-10-31T07:01:08.428Z,101824.28
2022-10-31T07:03:35.268Z,101826.25
2022-10-31T07:06:02.040Z,101836.72
2022-10-31T07:08:28.772Z,101833.00
2022-10-31T07:10:56.909Z,101828.13
2022-10-31T07:13:26.515Z,101831.53
2022-10-31T07:16:00.105Z,101830.16
2022-10-31T07:18:26.833Z,101821.75
2022-10-31T07:20:53.950Z,101824.59
2022-10-31T07:23:20.702Z,101835.13
2022-10-31T07:25:47.451Z,101826.47
2022-10-31T07:28:14.270Z,101822.34
2022-10-31T07:30:41.109Z,101818.50
2022-10-31T07:33:07.905Z,101824.78
2022-10-31T07:35:35.938Z,101832.72
2022-10-31T07:38:12.624Z,101832.19
2022-10-31T07:40:39.848Z,101846.06
2022-10-31T07:43:10.179Z,101845.69
2022-10-31T07:45:40.618Z,101836.44
2022-10-31T07:48:07.434Z,101843.38
2022-10-31T07:50:36.960Z,101844.94
2022-10-31T07:53:07.553Z,101848.28
2022-10-31T07:55:34.575Z,101846.47
2022-10-31T07:58:03.081Z,101851.47
2022-10-31T08:00:30.445Z,101859.25
2022-10-31T08:03:01.546Z,101849.38
2022-10-31T08:05:28.884Z,101846.72
2022-10-31T08:07:55.830Z,101841.63
2022-10-31T08:10:24.992Z,101832.97
2022-10-31T08:13:16.154Z,101845.72
2022-10-31T08:15:43.209Z,101838.06
2022-10-31T08:18:14.116Z,101842.88
2022-10-31T08:20:41.602Z,101846.03
2022-10-31T08:23:08.453Z,101843.50
2022-10-31T08:25:38.553Z,101849.53
2022-10-31T08:28:06.351Z,101846.03
2022-10-31T08:30:34.104Z,101839.34
2022-10-31T08:33:07.543Z,101849.69
2022-10-31T08:35:34.463Z,101831.34
2022-10-31T08:38:01.679Z,101844.91
2022-10-31T08:40:30.186Z,101847.09
2022-10-31T08:43:04.297Z,101829.44
2022-10-31T08:45:31.822Z,101849.09
2022-10-31T08:48:00.361Z,101850.47
2022-10-31T08:50:28.331Z,101857.56
2022-10-31T08:53:10.016Z,101863.16
2022-10-31T08:55:37.263Z,101862.16
2022-10-31T08:58:05.431Z,101860.88
2022-10-31T09:00:33.098Z,101860.41
2022-10-31T09:03:04.784Z,101865.09
2022-10-31T09:05:31.734Z,101859.28
2022-10-31T09:07:59.804Z,101855.53
2022-10-31T09:10:27.085Z,101861.63
2022-10-31T09:13:01.144Z,101858.59
2022-10-31T09:15:28.492Z,101851.63
2022-10-31T09:17:55.524Z,101832.34
2022-10-31T09:20:22.372Z,101828.81
2022-10-31T09:22:49.247Z,101841.16
2022-10-31T09:25:16.024Z,101840.19
2022-10-31T09:27:42.785Z,101839.75
2022-10-31T09:30:10.168Z,101832.97
2022-10-31T09:32:36.910Z,101843.94
2022-10-31T09:35:03.771Z,101844.75
2022-10-31T09:37:30.569Z,101848.25
2022-10-31T09:39:57.331Z,101832.72
2022-10-31T09:42:23.985Z,101836.06
2022-10-31T09:45:02.886Z,101839.75
2022-10-31T09:48:00.950Z,101833.78
2022-10-31T09:50:42.009Z,101837.59
2022-10-31T09:53:18.609Z,101845.38
2022-10-31T09:55:46.025Z,101850.53
2022-10-31T09:58:18.167Z,101848.03
2022-10-31T10:00:45.229Z,101858.63
2022-10-31T10:03:17.949Z,101863.94
2022-10-31T10:06:11.111Z,101868.41
2022-10-31T10:08:38.247Z,101865.09
2022-10-31T10:11:32.885Z,101857.16
2022-10-31T10:14:09.668Z,101855.47
2022-10-31T10:16:52.531Z,101856.31
2022-10-31T10:19:40.762Z,101858.81
2022-10-31T10:22:16.261Z,101856.47
2022-10-31T10:25:04.051Z,101845.69
2022-10-31T10:27:59.050Z,101848.50
2022-10-31T10:30:47.826Z,101854.94
2022-10-31T10:33:38.933Z,101855.78
2022-10-31T10:36:09.581Z,101851.31
2022-10-31T10:38:40.106Z,101844.03
2022-10-31T10:41:11.412Z,101842.38
2022-10-31T10:43:38.750Z,101841.53
2022-10-31T10:46:30.133Z,101846.69
2022-10-31T10:49:27.143Z,101837.09
2022-10-31T10:52:50.567Z,101836.09
2022-10-31T10:55:40.532Z,101833.44
2022-10-31T10:58:10.370Z,101837.09
2022-10-31T11:00:42.305Z,101832.44
2022-10-31T11:03:09.746Z,101840.88
2022-10-31T11:05:42.032Z,101847.19
2022-10-31T11:08:09.081Z,101842.84
2022-10-31T11:10:36.239Z,101836.91
2022-10-31T11:13:37.269Z,101830.28
2022-10-31T11:16:08.362Z,101836.91
2022-10-31T11:18:45.872Z,101826.63
2022-10-31T11:21:31.151Z,101830.28
2022-10-31T11:24:10.132Z,101834.25
2022-10-31T11:26:41.294Z,101830.81
2022-10-31T11:29:26.673Z,101824.34
2022-10-31T11:31:54.734Z,101828.97
2022-10-31T11:34:44.589Z,101844.06
2022-10-31T11:37:14.617Z,101839.41
2022-10-31T11:39:42.675Z,101827.13
2022-10-31T11:42:09.371Z,101835.56
2022-10-31T11:44:36.094Z,101834.69
2022-10-31T11:47:04.586Z,101843.94
2022-10-31T11:49:35.393Z,101837.31
2022-10-31T11:52:09.574Z,101827.69
2022-10-31T11:54:55.529Z,101838.78
2022-10-31T11:57:30.657Z,101838.13
2022-10-31T11:59:58.996Z,101827.47
2022-10-31T12:02:26.002Z,101837.25
2022-10-31T12:04:55.511Z,101840.38
2022-10-31T12:07:23.143Z,101838.53
2022-10-31T12:09:49.852Z,101837.13
2022-10-31T12:12:21.647Z,101831.78
2022-10-31T12:15:10.124Z,101832.09
2022-10-31T12:17:55.583Z,101831.06
2022-10-31T12:20:27.222Z,101829.91
2022-10-31T12:23:12.551Z,101826.88
2022-10-31T12:25:41.535Z,101831.34
2022-10-31T12:28:30.900Z,101829.16
2022-10-31T12:31:16.385Z,101841.56
2022-10-31T12:33:46.772Z,101831.13
2022-10-31T12:36:31.788Z,101834.06
2022-10-31T12:39:01.025Z,101835.22
2022-10-31T12:42:05.928Z,101838.50
2022-10-31T12:44:57.289Z,101841.75
2022-10-31T12:48:01.391Z,101842.34
2022-10-31T12:51:05.300Z,101847.56
2022-10-31T12:53:32.007Z,101840.25
2022-10-31T12:55:58.731Z,101837.25
2022-10-31T12:58:26.642Z,101838.53
2022-10-31T13:01:15.555Z,101839.78
2022-10-31T13:03:59.233Z,101829.56
2022-10-31T13:06:30.985Z,101829.84
2022-10-31T13:09:02.918Z,101826.69
2022-10-31T13:11:38.851Z,101823.50
2022-10-31T13:14:33.134Z,101820.34
2022-10-31T13:16:59.872Z,101816.66
2022-10-31T13:19:29.178Z,101822.75
2022-10-31T13:22:17.404Z,101815.09
2022-10-31T13:24:45.912Z,101811.91
2022-10-31T13:27:24.151Z,101811.69
2022-10-31T13:30:02.413Z,101814.50
2022-10-31T13:32:31.780Z,101809.41
2022-10-31T13:34:58.621Z,101819.66
2022-10-31T13:37:53.656Z,101821.78
2022-10-31T13:40:48.766Z,101824.88
2022-10-31T13:43:43.104Z,101819.06
2022-10-31T13:46:34.265Z,101823.94
2022-10-31T13:49:01.278Z,101825.91
2022-10-31T13:51:35.342Z,101823.84
2022-10-31T13:54:07.807Z,101831.22
2022-10-31T13:56:35.308Z,101828.22
2022-10-31T13:59:11.047Z,101837.53
2022-10-31T14:01:37.995Z,101831.88
2022-10-31T14:04:25.457Z,101831.63
2022-10-31T14:07:11.046Z,101840.13
2022-10-31T14:09:59.378Z,101838.88
2022-10-31T14:12:46.187Z,101821.56
2022-10-31T14:15:15.588Z,101837.25
2022-10-31T14:17:59.940Z,101837.69
2022-10-31T14:20:32.887Z,101827.69
2022-10-31T14:25:34.090Z,101842.44
2022-10-31T14:28:19.472Z,101838.41
2022-10-31T14:30:57.292Z,101831.75
2022-10-31T14:33:25.510Z,101834.09
2022-10-31T14:35:58.469Z,101837.72
2022-10-31T14:38:43.865Z,101839.66
2022-10-31T14:41:13.387Z,101830.50
2022-10-31T14:43:50.427Z,101822.91
2022-10-31T14:46:17.092Z,101825.81
2022-10-31T14:49:00.363Z,101831.47
2022-10-31T14:51:35.049Z,101830.81
2022-10-31T14:54:01.919Z,101812.38
2022-10-31T14:56:33.827Z,101825.25
2022-10-31T14:59:02.855Z,101830.81
2022-10-31T15:01:34.508Z,101825.25
2022-10-31T15:04:28.907Z,101831.50
2022-10-31T15:07:01.427Z,101841.50
2022-10-31T15:09:33.946Z,101830.25
2022-10-31T15:12:01.427Z,101835.94
2022-10-31T15:14:31.888Z,101830.28
2022-10-31T15:16:59.345Z,101831.38
2022-10-31T15:19:27.710Z,101833.28
2022-10-31T15:21:55.809Z,101825.94
2022-10-31T15:24:24.648Z,101837.34
2022-10-31T15:26:55.239Z,101832.34
2022-10-31T15:29:24.788Z,101840.63
2022-10-31T15:31:52.927Z,101844.94
2022-10-31T15:34:39.113Z,101847.84
2022-10-31T15:37:08.772Z,101848.94
2022-10-31T15:39:35.530Z,101855.31
2022-10-31T15:42:02.327Z,101849.75
2022-10-31T15:44:34.309Z,101854.63
2022-10-31T15:47:20.527Z,101861.81
2022-10-31T15:49:52.929Z,101848.91
2022-10-31T15:52:45.340Z,101848.22
2022-10-31T15:55:23.207Z,101853.63
2022-10-31T15:57:54.028Z,101860.69
2022-10-31T16:00:34.769Z,101850.69
2022-10-31T16:03:13.750Z,101863.59
2022-10-31T16:05:47.349Z,101858.47
2022-10-31T16:08:34.585Z,101860.38
2022-10-31T16:11:07.206Z,101863.84
2022-10-31T16:13:35.969Z,101868.44
2022-10-31T16:16:36.007Z,101866.06
2022-10-31T16:18:52.793Z,101856.06
2022-10-31T16:21:29.995Z,101872.31
2022-10-31T16:24:03.807Z,101846.78
2022-10-31T16:26:32.606Z,101867.16
2022-10-31T16:29:04.718Z,101860.50
2022-10-31T16:31:38.391Z,101855.25
2022-10-31T16:34:15.929Z,101854.41
2022-10-31T16:36:42.966Z,101857.03
2022-10-31T16:39:09.890Z,101853.84
2022-10-31T16:41:40.509Z,101858.97
2022-10-31T16:44:28.627Z,101852.88
2022-10-31T16:47:15.209Z,101856.47
2022-10-31T16:49:43.127Z,101849.56
2022-10-31T16:52:09.949Z,101859.09
2022-10-31T16:54:36.749Z,101855.75
2022-10-31T16:57:04.616Z,101864.63
2022-10-31T16:59:31.547Z,101865.47
2022-10-31T17:01:58.378Z,101860.34
2022-10-31T17:04:25.352Z,101852.00
2022-10-31T17:06:52.138Z,101852.84
2022-10-31T17:09:18.942Z,101857.97
2022-10-31T17:11:49.743Z,101857.25
2022-10-31T17:14:17.652Z,101858.94
2022-10-31T17:16:44.429Z,101859.91
2022-10-31T17:19:11.827Z,101856.44
2022-10-31T17:21:38.679Z,101851.31
2022-10-31T17:24:05.949Z,101853.94
2022-10-31T17:26:32.777Z,101856.69
2022-10-31T17:29:02.020Z,101855.88
2022-10-31T17:31:30.185Z,101861.13
2022-10-31T17:34:02.127Z,101846.72
2022-10-31T17:36:30.527Z,101845.75
2022-10-31T17:38:57.345Z,101851.00
2022-10-31T17:41:24.120Z,101858.50
2022-10-31T17:43:58.076Z,101855.03
2022-10-31T17:46:24.908Z,101850.75
2022-10-31T17:48:51.646Z,101849.78
2022-10-31T17:51:18.469Z,101849.78
2022-10-31T17:53:46.461Z,101847.28
2022-10-31T17:56:13.248Z,101849.78
2022-10-31T17:58:40.070Z,101854.47
2022-10-31T18:01:14.665Z,101858.66
2022-10-31T18:03:41.687Z,101864.72
2022-10-31T18:06:08.688Z,101867.38
2022-10-31T18:08:36.707Z,101862.22
2022-10-31T18:11:11.208Z,101858.91
2022-10-31T18:13:38.186Z,101851.69
2022-10-31T18:16:12.391Z,101848.25
2022-10-31T18:18:39.413Z,101858.66
2022-10-31T18:21:06.368Z,101855.44
2022-10-31T18:23:33.292Z,101865.56
2022-10-31T18:26:00.080Z,101867.47
2022-10-31T18:28:26.828Z,101857.25
2022-10-31T18:30:53.646Z,101862.22
2022-10-31T18:33:20.468Z,101861.41
2022-10-31T18:35:47.228Z,101865.41
2022-10-31T18:38:13.968Z,101871.91
2022-10-31T18:40:40.745Z,101872.06
2022-10-31T18:43:07.491Z,101873.88
2022-10-31T18:45:46.396Z,101871.34
2022-10-31T18:48:14.588Z,101869.69
2022-10-31T18:50:41.650Z,101869.69
2022-10-31T18:53:08.447Z,101861.31
2022-10-31T18:55:40.497Z,101870.66
2022-10-31T18:58:09.268Z,101869.84
2022-10-31T19:00:37.247Z,101871.50
2022-10-31T19:03:05.208Z,101872.31
2022-10-31T19:05:32.273Z,101872.31
2022-10-31T19:07:59.029Z,101867.22
2022-10-31T19:10:25.787Z,101863.59
2022-10-31T19:12:52.572Z,101868.03
2022-10-31T19:15:19.349Z,101862.78
2022-10-31T19:17:46.667Z,101860.25
2022-10-31T19:20:14.190Z,101849.03
2022-10-31T19:22:40.973Z,101862.78
2022-10-31T19:25:10.707Z,101861.94
2022-10-31T19:27:38.150Z,101856.78
2022-10-31T19:30:05.671Z,101865.41
2022-10-31T19:32:32.498Z,101858.47
2022-10-31T19:34:59.327Z,101849.97
2022-10-31T19:37:26.100Z,101854.16
2022-10-31T19:39:52.847Z,101854.28
2022-10-31T19:42:19.649Z,101854.28
2022-10-31T19:44:46.390Z,101860.41
2022-10-31T19:47:13.173Z,101855.38
2022-10-31T19:49:39.908Z,101856.19
2022-10-31T19:52:06.731Z,101853.97
2022-10-31T19:54:33.527Z,101849.41
2022-10-31T19:57:00.293Z,101844.53
2022-10-31T19:59:27.172Z,101852.03
2022-10-31T20:01:54.019Z,101846.75
2022-10-31T20:04:20.949Z,101859.81
2022-10-31T20:06:47.789Z,101847.88
2022-10-31T20:09:14.785Z,101846.09
2022-10-31T20:11:42.655Z,101849.41
2022-10-31T20:14:11.189Z,101842.47
2022-10-31T20:16:37.947Z,101842.34
2022-10-31T20:19:04.808Z,101840.81
2022-10-31T20:21:32.125Z,101838.03
2022-10-31T20:24:00.270Z,101838.19
2022-10-31T20:26:27.316Z,101833.75
2022-10-31T20:28:55.809Z,101838.03
2022-10-31T20:31:24.248Z,101842.47
2022-10-31T20:33:51.190Z,101834.16
2022-10-31T20:36:23.632Z,101845.09
2022-10-31T20:38:51.307Z,101839.03
2022-10-31T20:41:18.086Z,101840.94
2022-10-31T20:43:44.887Z,101844.41
2022-10-31T20:46:13.608Z,101841.09
2022-10-31T20:48:40.429Z,101834.41
2022-10-31T20:51:12.558Z,101838.31
2022-10-31T20:53:39.429Z,101839.28
2022-10-31T20:56:08.150Z,101840.50
2022-10-31T20:58:35.874Z,101836.78
2022-10-31T21:01:02.695Z,101831.66
2022-10-31T21:03:29.567Z,101834.28
2022-10-31T21:05:57.826Z,101839.53
2022-10-31T21:08:24.811Z,101823.44
2022-10-31T21:10:51.732Z,101829.16
2022-10-31T21:13:18.768Z,101828.44
2022-10-31T21:15:45.925Z,101830.09
2022-10-31T21:18:12.710Z,101829.16
2022-10-31T21:20:43.947Z,101824.03
2022-10-31T21:23:11.486Z,101824.16
2022-10-31T21:25:41.805Z,101825.97
2022-10-31T21:28:09.572Z,101825.00
2022-10-31T21:30:47.447Z,101825.00
2022-10-31T21:33:14.248Z,101818.91
2022-10-31T21:35:41.093Z,101818.19
2022-10-31T21:38:07.868Z,101822.50
2022-10-31T21:40:34.709Z,101821.53
2022-10-31T21:43:01.801Z,101800.44
2022-10-31T21:45:28.730Z,101818.06
2022-10-31T21:47:55.497Z,101813.66
2022-10-31T21:50:22.647Z,101818.91
2022-10-31T21:52:49.477Z,101819.72
2022-10-31T21:55:16.327Z,101816.28
2022-10-31T21:57:43.152Z,101815.31
2022-10-31T22:00:10.507Z,101817.94
2022-10-31T22:02:37.366Z,101810.88
2022-10-31T22:05:04.489Z,101816.13
2022-10-31T22:07:32.047Z,101818.19
2022-10-31T22:09:58.788Z,101822.22
2022-10-31T22:12:25.695Z,101818.66
2022-10-31T22:14:52.513Z,101817.94
2022-10-31T22:17:19.346Z,101811.84
2022-10-31T22:19:46.094Z,101812.66
2022-10-31T22:22:13.290Z,101811.69
2022-10-31T22:24:40.265Z,101805.75
2022-10-31T22:27:07.050Z,101805.75
2022-10-31T22:29:35.509Z,101812.66
2022-10-31T22:32:03.100Z,101815.19
2022-10-31T22:34:29.907Z,101814.22
2022-10-31T22:36:56.748Z,101811.69
2022-10-31T22:39:23.488Z,101816.97
2022-10-31T22:41:50.253Z,101803.13
2022-10-31T22:44:16.987Z,101807.41
2022-10-31T22:46:43.767Z,101810.88
2022-10-31T22:49:14.695Z,101813.50
2022-10-31T22:51:41.738Z,101803.53
2022-10-31T22:54:12.228Z,101809.47
2022-10-31T22:56:39.029Z,101811.00
2022-10-31T22:59:06.350Z,101800.03
2022-10-31T23:01:33.802Z,101804.94
2022-10-31T23:04:01.118Z,101812.00
2022-10-31T23:06:30.369Z,101809.47
2022-10-31T23:08:57.309Z,101794.22
2022-10-31T23:11:34.768Z,101786.31
2022-10-31T23:14:09.388Z,101804.22
2022-10-31T23:16:49.346Z,101796.31
2022-10-31T23:19:23.825Z,101800.91
2022-10-31T23:22:04.933Z,101798.94
2022-10-31T23:24:34.695Z,101795.50
2022-10-31T23:27:08.672Z,101800.91
2022-10-31T23:29:36.327Z,101800.91
2022-10-31T23:32:03.555Z,101800.03
2022-10-31T23:34:30.745Z,101794.63
2022-10-31T23:36:57.566Z,101803.78
2022-10-31T23:39:25.242Z,101798.78
2022-10-31T23:41:52.208Z,101804.16
2022-10-31T23:44:18.988Z,101803.22
2022-10-31T23:46:45.747Z,101798.78
2022-10-31T23:49:12.529Z,101801.41
2022-10-31T23:51:40.066Z,101800.84
2022-10-31T23:54:07.028Z,101801.78
2022-10-31T23:56:33.869Z,101806.78
2022-10-31T23:59:00.672Z,101806.94
